sensor_id;sensor_type;location;lat;lon;timestamp;pressure;altitude;pressure_sealevel;temperature;humidity
79131;BME280;70394;45.194;9.142;2023-07-20T00:01:44;99984.00;;;29.27;44.78
79131;BME280;70394;45.194;9.142;2023-07-20T00:04:11;99989.25;;;29.29;44.52
79131;BME280;70394;45.194;9.142;2023-07-20T00:06:36;99987.16;;;29.31;44.64
79131;BME280;70394;45.194;9.142;2023-07-20T00:09:06;99998.03;;;29.31;45.05
79131;BME280;70394;45.194;9.142;2023-07-20T00:11:36;100015.16;;;29.31;44.72
79131;BME280;70394;45.194;9.142;2023-07-20T00:14:01;100003.25;;;29.32;45.10
79131;BME280;70394;45.194;9.142;2023-07-20T00:16:27;100006.19;;;29.31;44.63
79131;BME280;70394;45.194;9.142;2023-07-20T00:18:52;100005.16;;;29.32;45.15
79131;BME280;70394;45.194;9.142;2023-07-20T00:21:17;100013.28;;;29.32;44.82
79131;BME280;70394;45.194;9.142;2023-07-20T00:23:43;100005.53;;;29.29;44.73
79131;BME280;70394;45.194;9.142;2023-07-20T00:26:08;100013.28;;;29.32;45.30
79131;BME280;70394;45.194;9.142;2023-07-20T00:28:33;100023.94;;;29.33;45.14
79131;BME280;70394;45.194;9.142;2023-07-20T00:30:59;100017.69;;;29.33;45.10
79131;BME280;70394;45.194;9.142;2023-07-20T00:33:25;100029.38;;;29.33;45.48
79131;BME280;70394;45.194;9.142;2023-07-20T00:35:50;100025.19;;;29.31;45.17
79131;BME280;70394;45.194;9.142;2023-07-20T00:38:16;100032.09;;;29.33;45.85
79131;BME280;70394;45.194;9.142;2023-07-20T00:40:41;100030.63;;;29.31;45.73
79131;BME280;70394;45.194;9.142;2023-07-20T00:43:08;100052.13;;;29.32;45.54
79131;BME280;70394;45.194;9.142;2023-07-20T00:45:34;100052.97;;;29.33;45.85
79131;BME280;70394;45.194;9.142;2023-07-20T00:48:01;100042.94;;;29.33;45.36
79131;BME280;70394;45.194;9.142;2023-07-20T00:50:27;100056.53;;;29.33;45.78
79131;BME280;70394;45.194;9.142;2023-07-20T00:52:54;100049.63;;;29.31;45.50
79131;BME280;70394;45.194;9.142;2023-07-20T00:55:19;100059.06;;;29.35;45.57
79131;BME280;70394;45.194;9.142;2023-07-20T00:57:45;100064.66;;;29.33;46.05
79131;BME280;70394;45.194;9.142;2023-07-20T01:00:11;100065.53;;;29.34;45.50
79131;BME280;70394;45.194;9.142;2023-07-20T01:02:37;100065.69;;;29.32;45.69
79131;BME280;70394;45.194;9.142;2023-07-20T01:05:03;100051.31;;;29.32;45.93
79131;BME280;70394;45.194;9.142;2023-07-20T01:10:12;100039.16;;;29.28;45.97
79131;BME280;70394;45.194;9.142;2023-07-20T01:12:42;100045.88;;;29.32;45.85
79131;BME280;70394;45.194;9.142;2023-07-20T01:15:08;100032.28;;;29.32;46.08
79131;BME280;70394;45.194;9.142;2023-07-20T01:17:35;100035.00;;;29.32;46.09
79131;BME280;70394;45.194;9.142;2023-07-20T01:20:00;100038.56;;;29.32;46.23
79131;BME280;70394;45.194;9.142;2023-07-20T01:30:58;100021.44;;;29.32;46.05
79131;BME280;70394;45.194;9.142;2023-07-20T01:33:25;100024.97;;;29.32;45.76
79131;BME280;70394;45.194;9.142;2023-07-20T01:35:58;100025.81;;;29.33;46.07
79131;BME280;70394;45.194;9.142;2023-07-20T01:38:25;100016.81;;;29.32;46.03
79131;BME280;70394;45.194;9.142;2023-07-20T01:40:51;100023.13;;;29.33;45.77
79131;BME280;70394;45.194;9.142;2023-07-20T01:43:16;100022.47;;;29.31;45.73
79131;BME280;70394;45.194;9.142;2023-07-20T01:45:42;100024.78;;;29.34;45.73
79131;BME280;70394;45.194;9.142;2023-07-20T01:48:08;100006.81;;;29.33;45.71
79131;BME280;70394;45.194;9.142;2023-07-20T01:50:34;100007.47;;;29.35;46.19
79131;BME280;70394;45.194;9.142;2023-07-20T01:53:00;99998.47;;;29.34;45.81
79131;BME280;70394;45.194;9.142;2023-07-20T01:55:25;99996.13;;;29.31;46.33
79131;BME280;70394;45.194;9.142;2023-07-20T01:57:51;99999.72;;;29.32;45.91
79131;BME280;70394;45.194;9.142;2023-07-20T02:00:16;99983.22;;;29.33;45.75
79131;BME280;70394;45.194;9.142;2023-07-20T02:02:44;99987.81;;;29.33;46.57
79131;BME280;70394;45.194;9.142;2023-07-20T02:05:09;99982.78;;;29.30;46.17
79131;BME280;70394;45.194;9.142;2023-07-20T02:07:35;100000.34;;;29.34;45.78
79131;BME280;70394;45.194;9.142;2023-07-20T02:10:00;100025.63;;;29.34;46.21
79131;BME280;70394;45.194;9.142;2023-07-20T02:12:25;100032.09;;;29.33;46.60
79131;BME280;70394;45.194;9.142;2023-07-20T02:14:51;100034.63;;;29.35;45.88
79131;BME280;70394;45.194;9.142;2023-07-20T02:17:17;100038.19;;;29.35;46.12
79131;BME280;70394;45.194;9.142;2023-07-20T02:19:42;100045.88;;;29.32;45.87
79131;BME280;70394;45.194;9.142;2023-07-20T02:22:07;100048.19;;;29.35;46.08
79131;BME280;70394;45.194;9.142;2023-07-20T02:24:33;100039.59;;;29.31;46.37
79131;BME280;70394;45.194;9.142;2023-07-20T02:26:59;100049.22;;;29.34;45.88
79131;BME280;70394;45.194;9.142;2023-07-20T02:29:24;100042.28;;;29.31;46.46
79131;BME280;70394;45.194;9.142;2023-07-20T02:31:50;100038.38;;;29.34;45.91
79131;BME280;70394;45.194;9.142;2023-07-20T02:34:15;100043.97;;;29.32;45.78
79131;BME280;70394;45.194;9.142;2023-07-20T02:36:41;100045.88;;;29.32;46.33
79131;BME280;70394;45.194;9.142;2023-07-20T02:39:08;100044.84;;;29.33;46.51
79131;BME280;70394;45.194;9.142;2023-07-20T02:41:33;100041.47;;;29.31;45.87
79131;BME280;70394;45.194;9.142;2023-07-20T02:43:59;100034.53;;;29.28;45.93
79131;BME280;70394;45.194;9.142;2023-07-20T02:46:24;100051.31;;;29.32;46.74
79131;BME280;70394;45.194;9.142;2023-07-20T02:48:49;100050.25;;;29.33;46.54
79131;BME280;70394;45.194;9.142;2023-07-20T02:51:15;100054.66;;;29.34;46.55
79131;BME280;70394;45.194;9.142;2023-07-20T02:53:40;100061.13;;;29.33;46.25
79131;BME280;70394;45.194;9.142;2023-07-20T02:56:07;100063.84;;;29.33;46.13
79131;BME280;70394;45.194;9.142;2023-07-20T02:58:34;100056.72;;;29.32;46.19
79131;BME280;70394;45.194;9.142;2023-07-20T03:01:02;100059.25;;;29.33;46.14
79131;BME280;70394;45.194;9.142;2023-07-20T03:03:28;100060.28;;;29.32;46.23
79131;BME280;70394;45.194;9.142;2023-07-20T03:05:53;100058.41;;;29.33;46.18
79131;BME280;70394;45.194;9.142;2023-07-20T03:08:21;100071.78;;;29.34;46.68
79131;BME280;70394;45.194;9.142;2023-07-20T03:10:46;100069.28;;;29.33;46.00
79131;BME280;70394;45.194;9.142;2023-07-20T03:13:12;100067.78;;;29.30;46.24
79131;BME280;70394;45.194;9.142;2023-07-20T03:15:39;100071.13;;;29.32;46.46
79131;BME280;70394;45.194;9.142;2023-07-20T03:18:04;100064.22;;;29.30;46.49
79131;BME280;70394;45.194;9.142;2023-07-20T03:20:31;100075.91;;;29.30;46.51
79131;BME280;70394;45.194;9.142;2023-07-20T03:22:56;100076.78;;;29.31;46.46
79131;BME280;70394;45.194;9.142;2023-07-20T03:25:21;100075.91;;;29.30;46.82
79131;BME280;70394;45.194;9.142;2023-07-20T03:27:47;100077.81;;;29.30;46.48
79131;BME280;70394;45.194;9.142;2023-07-20T03:30:12;100067.13;;;29.28;46.30
79131;BME280;70394;45.194;9.142;2023-07-20T03:32:38;100075.09;;;29.30;46.98
79131;BME280;70394;45.194;9.142;2023-07-20T03:35:03;100074.88;;;29.31;46.45
79131;BME280;70394;45.194;9.142;2023-07-20T03:37:29;100073.41;;;29.29;46.69
79131;BME280;70394;45.194;9.142;2023-07-20T03:39:55;100080.31;;;29.31;46.72
79131;BME280;70394;45.194;9.142;2023-07-20T03:42:20;100073.03;;;29.32;46.96
79131;BME280;70394;45.194;9.142;2023-07-20T03:44:45;100085.75;;;29.31;46.77
79131;BME280;70394;45.194;9.142;2023-07-20T03:47:11;100078.63;;;29.30;47.02
79131;BME280;70394;45.194;9.142;2023-07-20T03:49:36;100083.88;;;29.32;47.14
79131;BME280;70394;45.194;9.142;2023-07-20T03:52:01;100078.44;;;29.32;46.92
79131;BME280;70394;45.194;9.142;2023-07-20T03:54:30;100074.22;;;29.29;46.53
79131;BME280;70394;45.194;9.142;2023-07-20T03:56:55;100085.75;;;29.31;47.30
79131;BME280;70394;45.194;9.142;2023-07-20T03:59:20;100082.59;;;29.28;47.01
79131;BME280;70394;45.194;9.142;2023-07-20T04:01:46;100084.06;;;29.30;47.37
79131;BME280;70394;45.194;9.142;2023-07-20T04:04:11;100083.22;;;29.30;47.04
79131;BME280;70394;45.194;9.142;2023-07-20T04:06:37;100088.47;;;29.31;47.30
79131;BME280;70394;45.194;9.142;2023-07-20T04:09:03;100093.06;;;29.31;47.62
79131;BME280;70394;45.194;9.142;2023-07-20T04:11:30;100092.41;;;29.29;47.07
79131;BME280;70394;45.194;9.142;2023-07-20T04:13:55;100095.94;;;29.29;47.64
79131;BME280;70394;45.194;9.142;2023-07-20T04:16:21;100102.88;;;29.32;47.52
79131;BME280;70394;45.194;9.142;2023-07-20T04:18:47;100099.31;;;29.31;47.57
79131;BME280;70394;45.194;9.142;2023-07-20T04:21:12;100101.38;;;29.29;47.64
79131;BME280;70394;45.194;9.142;2023-07-20T04:23:37;100093.44;;;29.28;46.79
79131;BME280;70394;45.194;9.142;2023-07-20T04:26:03;100100.19;;;29.32;47.41
79131;BME280;70394;45.194;9.142;2023-07-20T04:28:28;100109.34;;;29.31;47.82
79131;BME280;70394;45.194;9.142;2023-07-20T04:30:53;100109.75;;;29.28;47.16
79131;BME280;70394;45.194;9.142;2023-07-20T04:33:19;100114.78;;;29.31;47.48
79131;BME280;70394;45.194;9.142;2023-07-20T04:35:47;100109.34;;;29.31;47.77
79131;BME280;70394;45.194;9.142;2023-07-20T04:38:13;100100.34;;;29.30;47.81
79131;BME280;70394;45.194;9.142;2023-07-20T04:40:41;100102.25;;;29.30;47.65
79131;BME280;70394;45.194;9.142;2023-07-20T04:43:06;100108.31;;;29.32;47.46
79131;BME280;70394;45.194;9.142;2023-07-20T04:45:32;100108.59;;;29.07;49.34
79131;BME280;70394;45.194;9.142;2023-07-20T04:47:57;100122.66;;;28.96;50.26
79131;BME280;70394;45.194;9.142;2023-07-20T04:50:23;100114.13;;;28.84;50.47
79131;BME280;70394;45.194;9.142;2023-07-20T04:52:50;100113.34;;;28.75;50.97
79131;BME280;70394;45.194;9.142;2023-07-20T04:55:15;100115.28;;;28.66;50.64
79131;BME280;70394;45.194;9.142;2023-07-20T04:57:41;100119.91;;;28.65;51.29
79131;BME280;70394;45.194;9.142;2023-07-20T05:00:07;100118.81;;;28.51;51.25
79131;BME280;70394;45.194;9.142;2023-07-20T05:02:32;100121.44;;;28.45;51.78
79131;BME280;70394;45.194;9.142;2023-07-20T05:04:58;100122.66;;;28.42;51.93
79131;BME280;70394;45.194;9.142;2023-07-20T05:07:23;100121.13;;;28.40;52.15
79131;BME280;70394;45.194;9.142;2023-07-20T05:09:48;100128.44;;;28.39;52.55
79131;BME280;70394;45.194;9.142;2023-07-20T05:12:14;100129.66;;;28.36;52.70
79131;BME280;70394;45.194;9.142;2023-07-20T05:14:39;100120.84;;;28.34;52.01
79131;BME280;70394;45.194;9.142;2023-07-20T05:17:05;100122.91;;;28.32;52.12
79131;BME280;70394;45.194;9.142;2023-07-20T05:19:30;100117.38;;;28.26;52.18
79131;BME280;70394;45.194;9.142;2023-07-20T05:21:56;100125.50;;;28.26;51.40
79131;BME280;70394;45.194;9.142;2023-07-20T05:24:21;100123.44;;;28.28;50.80
79131;BME280;70394;45.194;9.142;2023-07-20T05:26:47;100125.78;;;28.31;51.41
79131;BME280;70394;45.194;9.142;2023-07-20T05:29:13;100127.69;;;28.30;50.97
79131;BME280;70394;45.194;9.142;2023-07-20T05:31:38;100126.66;;;28.31;52.20
79131;BME280;70394;45.194;9.142;2023-07-20T05:34:04;100127.59;;;28.39;51.69
79131;BME280;70394;45.194;9.142;2023-07-20T05:36:29;100123.41;;;28.36;51.85
79131;BME280;70394;45.194;9.142;2023-07-20T05:38:56;100132.34;;;28.36;50.41
79131;BME280;70394;45.194;9.142;2023-07-20T05:41:21;100131.81;;;28.41;50.22
79131;BME280;70394;45.194;9.142;2023-07-20T05:43:48;100133.66;;;28.41;52.53
79131;BME280;70394;45.194;9.142;2023-07-20T05:46:13;100139.47;;;28.38;52.46
79131;BME280;70394;45.194;9.142;2023-07-20T05:48:38;100143.63;;;28.25;52.69
79131;BME280;70394;45.194;9.142;2023-07-20T05:51:04;100139.72;;;28.28;53.24
79131;BME280;70394;45.194;9.142;2023-07-20T05:53:29;100147.56;;;28.22;53.45
79131;BME280;70394;45.194;9.142;2023-07-20T05:55:55;100147.47;;;28.31;53.38
79131;BME280;70394;45.194;9.142;2023-07-20T05:58:20;100146.91;;;28.12;53.18
79131;BME280;70394;45.194;9.142;2023-07-20T06:00:50;100150.72;;;28.26;53.12
79131;BME280;70394;45.194;9.142;2023-07-20T06:03:16;100141.22;;;28.30;53.25
79131;BME280;70394;45.194;9.142;2023-07-20T06:05:42;100154.78;;;28.30;53.45
79131;BME280;70394;45.194;9.142;2023-07-20T06:08:08;100154.53;;;28.17;53.49
79131;BME280;70394;45.194;9.142;2023-07-20T06:10:33;100158.53;;;27.98;53.86
79131;BME280;70394;45.194;9.142;2023-07-20T06:12:58;100161.97;;;28.15;53.19
79131;BME280;70394;45.194;9.142;2023-07-20T06:15:31;100156.84;;;28.28;53.25
79131;BME280;70394;45.194;9.142;2023-07-20T06:17:58;100153.03;;;28.38;53.30
79131;BME280;70394;45.194;9.142;2023-07-20T06:20:24;100161.09;;;28.46;53.32
79131;BME280;70394;45.194;9.142;2023-07-20T06:22:49;100159.19;;;28.31;53.42
79131;BME280;70394;45.194;9.142;2023-07-20T06:25:15;100166.66;;;28.29;53.10
79131;BME280;70394;45.194;9.142;2023-07-20T06:27:42;100160.78;;;28.41;53.39
79131;BME280;70394;45.194;9.142;2023-07-20T06:30:07;100166.03;;;28.42;52.98
79131;BME280;70394;45.194;9.142;2023-07-20T06:32:33;100160.50;;;28.35;53.10
79131;BME280;70394;45.194;9.142;2023-07-20T06:34:58;100170.19;;;28.53;52.29
79131;BME280;70394;45.194;9.142;2023-07-20T06:37:24;100170.94;;;28.62;51.22
79131;BME280;70394;45.194;9.142;2023-07-20T06:39:50;100168.06;;;28.63;52.14
79131;BME280;70394;45.194;9.142;2023-07-20T06:42:15;100167.31;;;28.70;51.95
79131;BME280;70394;45.194;9.142;2023-07-20T06:44:41;100170.69;;;28.72;51.22
79131;BME280;70394;45.194;9.142;2023-07-20T06:47:06;100167.44;;;28.76;51.27
79131;BME280;70394;45.194;9.142;2023-07-20T06:49:32;100166.22;;;28.79;51.12
79131;BME280;70394;45.194;9.142;2023-07-20T06:51:58;100159.94;;;28.78;51.11
79131;BME280;70394;45.194;9.142;2023-07-20T06:54:23;100161.09;;;28.84;50.58
79131;BME280;70394;45.194;9.142;2023-07-20T06:56:49;100160.09;;;28.85;50.66
79131;BME280;70394;45.194;9.142;2023-07-20T06:59:14;100166.53;;;28.84;50.34
79131;BME280;70394;45.194;9.142;2023-07-20T07:01:40;100165.13;;;28.88;50.33
79131;BME280;70394;45.194;9.142;2023-07-20T07:04:05;100156.34;;;28.86;50.73
79131;BME280;70394;45.194;9.142;2023-07-20T07:06:31;100156.16;;;28.88;50.02
79131;BME280;70394;45.194;9.142;2023-07-20T07:08:56;100164.75;;;28.91;49.71
79131;BME280;70394;45.194;9.142;2023-07-20T07:11:22;100155.97;;;28.89;49.73
79131;BME280;70394;45.194;9.142;2023-07-20T07:13:48;100162.25;;;28.90;49.48
79131;BME280;70394;45.194;9.142;2023-07-20T07:16:16;100156.63;;;28.91;50.14
79131;BME280;70394;45.194;9.142;2023-07-20T07:18:47;100162.69;;;28.93;49.73
79131;BME280;70394;45.194;9.142;2023-07-20T07:21:12;100161.50;;;28.96;49.84
79131;BME280;70394;45.194;9.142;2023-07-20T07:23:38;100164.84;;;28.98;50.00
79131;BME280;70394;45.194;9.142;2023-07-20T07:26:04;100154.84;;;28.99;49.71
79131;BME280;70394;45.194;9.142;2023-07-20T07:28:29;100165.72;;;28.99;50.43
79131;BME280;70394;45.194;9.142;2023-07-20T07:30:55;100167.41;;;29.00;49.70
79131;BME280;70394;45.194;9.142;2023-07-20T07:33:22;100163.38;;;28.96;50.03
79131;BME280;70394;45.194;9.142;2023-07-20T07:35:47;100170.28;;;28.98;50.14
79131;BME280;70394;45.194;9.142;2023-07-20T07:38:13;100168.44;;;28.99;50.90
79131;BME280;70394;45.194;9.142;2023-07-20T07:40:38;100171.41;;;29.04;50.44
79131;BME280;70394;45.194;9.142;2023-07-20T07:43:04;100155.88;;;28.98;51.07
79131;BME280;70394;45.194;9.142;2023-07-20T07:45:29;100169.34;;;29.06;51.36
79131;BME280;70394;45.194;9.142;2023-07-20T07:47:54;100160.56;;;29.04;51.11
79131;BME280;70394;45.194;9.142;2023-07-20T07:50:20;100166.63;;;29.06;50.77
79131;BME280;70394;45.194;9.142;2023-07-20T07:52:45;100165.59;;;29.07;51.17
79131;BME280;70394;45.194;9.142;2023-07-20T07:55:11;100164.97;;;29.05;51.07
79131;BME280;70394;45.194;9.142;2023-07-20T07:57:36;100164.97;;;29.05;51.15
79131;BME280;70394;45.194;9.142;2023-07-20T08:00:01;100170.22;;;29.06;50.94
79131;BME280;70394;45.194;9.142;2023-07-20T08:02:28;100170.66;;;29.10;50.78
79131;BME280;70394;45.194;9.142;2023-07-20T08:04:53;100164.97;;;29.05;50.75
79131;BME280;70394;45.194;9.142;2023-07-20T08:07:19;100174.13;;;29.04;50.27
79131;BME280;70394;45.194;9.142;2023-07-20T08:09:44;100184.34;;;29.02;49.57
79131;BME280;70394;45.194;9.142;2023-07-20T08:12:09;100174.50;;;29.01;50.03
79131;BME280;70394;45.194;9.142;2023-07-20T08:14:35;100176.19;;;29.02;50.19
79131;BME280;70394;45.194;9.142;2023-07-20T08:17:00;100171.03;;;29.07;50.09
79131;BME280;70394;45.194;9.142;2023-07-20T08:19:25;100169.34;;;29.06;50.17
79131;BME280;70394;45.194;9.142;2023-07-20T08:21:51;100173.38;;;29.10;50.05
79131;BME280;70394;45.194;9.142;2023-07-20T08:24:16;100180.50;;;29.11;49.49
79131;BME280;70394;45.194;9.142;2023-07-20T08:26:41;100167.88;;;29.03;48.91
79131;BME280;70394;45.194;9.142;2023-07-20T08:29:07;100168.06;;;29.02;49.68
79131;BME280;70394;45.194;9.142;2023-07-20T08:31:32;100179.19;;;29.07;49.27
79131;BME280;70394;45.194;9.142;2023-07-20T08:33:57;100173.84;;;29.14;49.17
79131;BME280;70394;45.194;9.142;2023-07-20T08:36:23;100172.44;;;29.18;49.53
79131;BME280;70394;45.194;9.142;2023-07-20T08:38:49;100172.44;;;29.18;49.47
79131;BME280;70394;45.194;9.142;2023-07-20T08:41:14;100168.53;;;29.20;49.16
79131;BME280;70394;45.194;9.142;2023-07-20T08:43:42;100156.34;;;29.16;49.25
79131;BME280;70394;45.194;9.142;2023-07-20T08:46:11;100155.16;;;29.19;48.78
79131;BME280;70394;45.194;9.142;2023-07-20T08:48:39;100157.66;;;29.20;48.92
79131;BME280;70394;45.194;9.142;2023-07-20T08:51:05;100156.84;;;29.20;48.79
79131;BME280;70394;45.194;9.142;2023-07-20T08:53:32;100156.44;;;29.23;49.12
79131;BME280;70394;45.194;9.142;2023-07-20T08:55:59;100158.13;;;29.24;49.20
79131;BME280;70394;45.194;9.142;2023-07-20T08:58:25;100150.81;;;29.25;48.93
79131;BME280;70394;45.194;9.142;2023-07-20T09:00:52;100151.47;;;29.27;49.07
79131;BME280;70394;45.194;9.142;2023-07-20T09:03:18;100142.66;;;29.25;48.63
79131;BME280;70394;45.194;9.142;2023-07-20T09:05:44;100145.03;;;29.28;48.94
79131;BME280;70394;45.194;9.142;2023-07-20T09:08:10;100137.72;;;29.28;48.46
79131;BME280;70394;45.194;9.142;2023-07-20T09:10:35;100141.47;;;29.27;48.54
79131;BME280;70394;45.194;9.142;2023-07-20T09:13:01;100135.84;;;29.29;48.52
79131;BME280;70394;45.194;9.142;2023-07-20T09:15:28;100132.09;;;29.30;49.03
79131;BME280;70394;45.194;9.142;2023-07-20T09:17:54;100132.94;;;29.30;48.75
79131;BME280;70394;45.194;9.142;2023-07-20T09:20:20;100133.78;;;29.31;48.71
79131;BME280;70394;45.194;9.142;2023-07-20T09:22:46;100119.56;;;29.29;48.64
79131;BME280;70394;45.194;9.142;2023-07-20T09:25:12;100124.63;;;29.32;48.81
79131;BME280;70394;45.194;9.142;2023-07-20T09:27:40;100121.69;;;29.33;48.88
79131;BME280;70394;45.194;9.142;2023-07-20T09:30:07;100129.84;;;29.33;48.45
79131;BME280;70394;45.194;9.142;2023-07-20T09:32:44;100130.03;;;29.32;48.75
79131;BME280;70394;45.194;9.142;2023-07-20T09:35:17;100130.69;;;29.34;48.83
79131;BME280;70394;45.194;9.142;2023-07-20T09:38:00;100123.38;;;29.34;48.74
79131;BME280;70394;45.194;9.142;2023-07-20T09:40:26;100122.38;;;29.35;48.78
79131;BME280;70394;45.194;9.142;2023-07-20T09:42:53;100117.28;;;29.32;48.74
79131;BME280;70394;45.194;9.142;2023-07-20T09:45:35;100114.22;;;29.35;48.42
79131;BME280;70394;45.194;9.142;2023-07-20T09:48:07;100110.66;;;29.35;48.34
79131;BME280;70394;45.194;9.142;2023-07-20T09:50:33;100119.44;;;29.37;48.32
79131;BME280;70394;45.194;9.142;2023-07-20T09:53:00;100123.03;;;29.38;48.86
79131;BME280;70394;45.194;9.142;2023-07-20T09:55:26;100121.13;;;29.38;48.29
79131;BME280;70394;45.194;9.142;2023-07-20T09:57:52;100124.50;;;29.40;48.19
79131;BME280;70394;45.194;9.142;2023-07-20T10:00:19;100117.75;;;29.36;48.75
79131;BME280;70394;45.194;9.142;2023-07-20T10:02:45;100117.19;;;29.41;48.55
79131;BME280;70394;45.194;9.142;2023-07-20T10:05:13;100116.34;;;29.40;48.21
79131;BME280;70394;45.194;9.142;2023-07-20T10:07:48;100089.69;;;29.29;48.57
79131;BME280;70394;45.194;9.142;2023-07-20T10:10:15;100115.31;;;29.41;48.57
79131;BME280;70394;45.194;9.142;2023-07-20T10:12:47;100104.44;;;29.41;48.68
79131;BME280;70394;45.194;9.142;2023-07-20T10:15:29;100101.72;;;29.41;48.53
79131;BME280;70394;45.194;9.142;2023-07-20T10:18:12;100099.03;;;29.41;48.15
79131;BME280;70394;45.194;9.142;2023-07-20T10:20:39;100102.41;;;29.43;48.65
79131;BME280;70394;45.194;9.142;2023-07-20T10:23:06;100099.53;;;29.45;48.03
79131;BME280;70394;45.194;9.142;2023-07-20T10:25:32;100090.22;;;29.39;48.18
79131;BME280;70394;45.194;9.142;2023-07-20T10:28:02;100092.75;;;29.41;48.05
79131;BME280;70394;45.194;9.142;2023-07-20T10:30:28;100094.25;;;29.43;48.52
79131;BME280;70394;45.194;9.142;2023-07-20T10:32:54;100084.44;;;29.42;48.05
79131;BME280;70394;45.194;9.142;2023-07-20T10:35:20;100090.72;;;29.43;48.26
79131;BME280;70394;45.194;9.142;2023-07-20T10:37:53;100089.50;;;29.45;47.89
79131;BME280;70394;45.194;9.142;2023-07-20T10:40:32;100091.53;;;29.43;48.30
79131;BME280;70394;45.194;9.142;2023-07-20T10:45:34;100092.88;;;29.47;48.19
79131;BME280;70394;45.194;9.142;2023-07-20T10:48:03;100090.97;;;29.48;47.97
79131;BME280;70394;45.194;9.142;2023-07-20T10:50:30;100097.06;;;29.50;48.37
79131;BME280;70394;45.194;9.142;2023-07-20T10:53:10;100094.56;;;29.48;48.14
79131;BME280;70394;45.194;9.142;2023-07-20T10:55:36;100090.81;;;29.49;48.06
79131;BME280;70394;45.194;9.142;2023-07-20T10:58:12;100084.09;;;29.45;48.20
79131;BME280;70394;45.194;9.142;2023-07-20T11:01:01;100077.41;;;29.48;48.24
79131;BME280;70394;45.194;9.142;2023-07-20T11:03:29;100070.38;;;29.54;48.19
79131;BME280;70394;45.194;9.142;2023-07-20T11:05:56;100075.81;;;29.54;48.58
79131;BME280;70394;45.194;9.142;2023-07-20T11:08:41;100076.19;;;29.51;48.28
79131;BME280;70394;45.194;9.142;2023-07-20T11:11:29;100073.72;;;29.56;48.02
79131;BME280;70394;45.194;9.142;2023-07-20T11:14:02;100073.16;;;29.60;47.85
79131;BME280;70394;45.194;9.142;2023-07-20T11:16:45;100071.94;;;29.63;48.27
79131;BME280;70394;45.194;9.142;2023-07-20T11:19:17;100064.94;;;29.54;48.09
79131;BME280;70394;45.194;9.142;2023-07-20T11:21:44;100057.91;;;29.59;47.84
79131;BME280;70394;45.194;9.142;2023-07-20T11:24:10;100057.72;;;29.61;48.29
79131;BME280;70394;45.194;9.142;2023-07-20T11:26:42;100055.25;;;29.66;47.92
79131;BME280;70394;45.194;9.142;2023-07-20T11:29:08;100050.22;;;29.63;48.52
79131;BME280;70394;45.194;9.142;2023-07-20T11:31:38;100047.22;;;29.58;48.32
79131;BME280;70394;45.194;9.142;2023-07-20T11:34:03;100045.59;;;29.42;47.96
79131;BME280;70394;45.194;9.142;2023-07-20T11:36:29;100039.72;;;29.23;46.99
79131;BME280;70394;45.194;9.142;2023-07-20T11:38:54;100046.31;;;28.99;46.93
79131;BME280;70394;45.194;9.142;2023-07-20T11:41:20;100039.00;;;28.84;46.47
79131;BME280;70394;45.194;9.142;2023-07-20T11:43:47;100035.72;;;28.59;46.02
79131;BME280;70394;45.194;9.142;2023-07-20T11:46:12;100026.28;;;28.55;45.87
79131;BME280;70394;45.194;9.142;2023-07-20T11:48:38;100026.56;;;28.45;45.69
79131;BME280;70394;45.194;9.142;2023-07-20T11:51:05;100025.59;;;28.38;45.36
79131;BME280;70394;45.194;9.142;2023-07-20T11:53:30;100022.41;;;28.34;44.86
79131;BME280;70394;45.194;9.142;2023-07-20T11:55:58;100022.41;;;28.34;45.26
79131;BME280;70394;45.194;9.142;2023-07-20T11:58:24;100005.56;;;28.24;44.54
79131;BME280;70394;45.194;9.142;2023-07-20T12:00:49;100015.66;;;28.30;44.91
79131;BME280;70394;45.194;9.142;2023-07-20T12:03:15;100007.91;;;28.27;45.10
79131;BME280;70394;45.194;9.142;2023-07-20T12:05:41;100012.69;;;28.40;45.69
79131;BME280;70394;45.194;9.142;2023-07-20T12:08:07;100017.00;;;28.49;45.37
79131;BME280;70394;45.194;9.142;2023-07-20T12:10:32;100005.84;;;28.44;45.76
79131;BME280;70394;45.194;9.142;2023-07-20T12:13:01;100003.44;;;28.49;45.64
79131;BME280;70394;45.194;9.142;2023-07-20T12:15:28;100008.66;;;28.50;46.01
79131;BME280;70394;45.194;9.142;2023-07-20T12:18:01;99994.66;;;28.47;45.85
79131;BME280;70394;45.194;9.142;2023-07-20T12:20:34;99988.84;;;28.50;46.05
79131;BME280;70394;45.194;9.142;2023-07-20T12:23:10;99996.34;;;28.48;46.46
79131;BME280;70394;45.194;9.142;2023-07-20T12:25:44;99994.84;;;28.45;46.15
79131;BME280;70394;45.194;9.142;2023-07-20T12:30:41;99989.13;;;28.40;46.50
79131;BME280;70394;45.194;9.142;2023-07-20T12:33:07;99983.06;;;28.38;46.79
79131;BME280;70394;45.194;9.142;2023-07-20T12:35:33;99982.59;;;28.34;46.75
79131;BME280;70394;45.194;9.142;2023-07-20T12:37:59;99981.00;;;28.40;46.87
79131;BME280;70394;45.194;9.142;2023-07-20T12:40:25;99970.34;;;28.39;46.30
79131;BME280;70394;45.194;9.142;2023-07-20T12:42:51;99973.91;;;28.39;46.47
79131;BME280;70394;45.194;9.142;2023-07-20T12:45:16;99967.63;;;28.39;46.74
79131;BME280;70394;45.194;9.142;2023-07-20T12:47:42;99962.47;;;28.29;46.74
79131;BME280;70394;45.194;9.142;2023-07-20T12:50:09;99970.22;;;28.32;46.62
79131;BME280;70394;45.194;9.142;2023-07-20T12:52:39;99961.81;;;28.27;46.73
79131;BME280;70394;45.194;9.142;2023-07-20T12:55:06;99952.13;;;28.32;46.54
79131;BME280;70394;45.194;9.142;2023-07-20T12:57:33;99947.06;;;28.29;46.53
79131;BME280;70394;45.194;9.142;2023-07-20T12:59:59;99945.56;;;28.27;46.20
79131;BME280;70394;45.194;9.142;2023-07-20T13:02:25;99940.63;;;28.30;46.63
79131;BME280;70394;45.194;9.142;2023-07-20T13:04:50;99942.84;;;28.27;46.60